Time;durP1;ratioP1;P1;durP2;ratioP2;P2;SDS_P1;SDS_P2;PMS_P1;PMS_P2;Temp;Humidity;BMP_temperature;BMP_pressure;BME280_temperature;BME280_humidity;BME280_pressure;Samples;Min_cycle;Max_cycle;Signal;HPM_P1;HPM_P2
2022/12/21 00:02:23;;;;;;;46.70;18.20;;;;;;;;;;4899169;29;20044;-72
2022/12/21 00:04:49;;;;;;;37.95;17.50;;;;;;;;;;4884200;29;20048;-72
2022/12/21 00:07:15;;;;;;;60.08;18.35;;;;;;;;;;4899357;29;20048;-72
2022/12/21 00:09:41;;;;;;;35.20;16.90;;;;;;;;;;4899683;29;20040;-72
2022/12/21 00:12:08;;;;;;;49.92;16.02;;;;;;;;;;4899253;29;20043;-72
2022/12/21 00:14:34;;;;;;;50.15;16.60;;;;;;;;;;4884471;29;20044;-72
2022/12/21 00:17:00;;;;;;;35.67;16.88;;;;;;;;;;4899402;29;20403;-73
2022/12/21 00:19:26;;;;;;;33.90;15.55;;;;;;;;;;4899764;29;20048;-72
2022/12/21 00:21:52;;;;;;;37.80;16.42;;;;;;;;;;4899346;29;20130;-72
2022/12/21 00:24:18;;;;;;;33.97;16.05;;;;;;;;;;4899389;29;20048;-72
2022/12/21 00:26:45;;;;;;;34.45;15.65;;;;;;;;;;4899165;29;20072;-72
2022/12/21 00:29:11;;;;;;;42.58;15.98;;;;;;;;;;4916333;29;20076;-72
2022/12/21 00:31:39;;;;;;;48.08;15.68;;;;;;;;;;4899427;29;20048;-72
2022/12/21 00:34:05;;;;;;;35.20;14.88;;;;;;;;;;4899382;29;20048;-72
2022/12/21 00:36:31;;;;;;;31.88;15.00;;;;;;;;;;4899574;29;20454;-72
2022/12/21 00:38:58;;;;;;;34.42;15.10;;;;;;;;;;4899231;29;20041;-72
2022/12/21 00:41:25;;;;;;;29.75;13.27;;;;;;;;;;4916467;29;20404;-72
2022/12/21 00:43:53;;;;;;;31.05;14.82;;;6.40;99.90;;;;;;4917012;29;20040;-72
2022/12/21 00:46:29;;;;;;;30.83;13.75;;;6.50;99.90;;;;;;4902796;29;20052;-72
2022/12/21 00:48:56;;;;;;;40.00;13.60;;;;;;;;;;4902632;29;20044;-72
2022/12/21 00:51:22;;;;;;;40.42;14.77;;;;;;;;;;4902713;29;20039;-72
2022/12/21 00:53:49;;;;;;;28.48;14.35;;;;;;;;;;4886849;29;20040;-72
2022/12/21 00:56:16;;;;;;;32.28;14.50;;;6.30;99.90;;;;;;4902564;29;20484;-72
2022/12/21 00:58:42;;;;;;;27.17;13.95;;;;;;;;;;4902273;29;20059;-73
2022/12/21 01:01:09;;;;;;;33.95;14.55;;;;;;;;;;4902602;29;20055;-73
2022/12/21 01:03:35;;;;;;;26.90;13.68;;;;;;;;;;4902184;29;20071;-72
2022/12/21 01:06:02;;;;;;;33.10;14.45;;;6.00;99.90;;;;;;4902075;29;20055;-72
2022/12/21 01:08:28;;;;;;;22.73;13.38;;;;;;;;;;4902460;29;20392;-72
2022/12/21 01:10:58;;;;;;;23.83;13.75;;;;;;;;;;4902068;29;20044;-72
2022/12/21 01:13:24;;;;;;;22.83;12.88;;;;;;;;;;4886923;29;20040;-72
2022/12/21 01:15:50;;;;;;;22.75;12.95;;;;;;;;;;4902004;29;20044;-73
2022/12/21 01:18:16;;;;;;;25.75;12.00;;;;;;;;;;4902516;29;20048;-73
2022/12/21 01:20:46;;;;;;;25.55;12.55;;;5.90;99.90;;;;;;4886446;29;20044;-73
2022/12/21 01:23:12;;;;;;;25.20;12.82;;;;;;;;;;4902112;29;20056;-73
2022/12/21 01:25:38;;;;;;;22.63;12.48;;;;;;;;;;4901834;29;20054;-74
2022/12/21 01:28:05;;;;;;;56.67;12.40;;;;;;;;;;4902280;29;20052;-72
2022/12/21 01:30:31;;;;;;;26.15;12.93;;;;;;;;;;4901607;29;20063;-73
2022/12/21 01:32:57;;;;;;;39.28;12.15;;;;;;;;;;4902429;29;20044;-72
2022/12/21 01:35:23;;;;;;;23.48;13.25;;;;;;;;;;4901797;29;20139;-72
2022/12/21 01:37:49;;;;;;;51.58;12.30;;;;;;;;;;4902215;29;20373;-72
2022/12/21 01:40:15;;;;;;;23.05;12.43;;;;;;;;;;4901540;29;20044;-73
2022/12/21 01:42:41;;;;;;;35.33;12.15;;;;;;;;;;4901663;29;20507;-73
2022/12/21 01:45:29;;;;;;;27.83;11.60;;;5.50;99.90;;;;;;4902000;29;20040;-73
2022/12/21 01:47:57;;;;;;;62.88;11.60;;;5.40;99.90;;;;;;4901654;29;20123;-73
2022/12/21 01:50:43;;;;;;;35.63;12.23;;;;;;;;;;4901789;29;20047;-72
2022/12/21 01:53:30;;;;;;;33.08;12.13;;;5.50;99.90;;;;;;4901623;29;20127;-72
2022/12/21 01:55:58;;;;;;;43.25;11.52;;;;;;;;;;4900316;29;20055;-73
2022/12/21 01:58:27;;;;;;;43.25;11.57;;;5.40;99.90;;;;;;4901658;29;20051;-72
2022/12/21 02:00:54;;;;;;;60.45;12.68;;;;;;;;;;4900965;29;20051;-72
2022/12/21 02:03:22;;;;;;;25.67;11.50;;;;;;;;;;4900834;29;20060;-72
2022/12/21 02:06:23;;;;;;;33.10;12.75;;;5.30;99.90;;;;;;4886206;29;20047;-73
2022/12/21 02:08:49;;;;;;;55.65;12.68;;;;;;;;;;4889300;29;20527;-73
2022/12/21 02:11:15;;;;;;;36.20;12.50;;;;;;;;;;4901199;29;20035;-73
2022/12/21 02:13:41;;;;;;;32.17;12.60;;;;;;;;;;4901202;29;20051;-72
2022/12/21 02:16:31;;;;;;;65.70;12.77;;;5.30;99.90;;;;;;4901080;29;20048;-72
2022/12/21 02:19:15;;;;;;;47.10;13.27;;;;;;;;;;4901110;29;20122;-72
2022/12/21 02:22:07;;;;;;;26.15;12.75;;;5.10;99.90;;;;;;4901259;29;20044;-73
2022/12/21 02:25:00;;;;;;;59.70;14.03;;;;;;;;;;4901065;29;20119;-73
2022/12/21 02:27:32;;;;;;;50.97;13.13;;;;;;;;;;4900495;29;20052;-73
2022/12/21 02:30:06;;;;;;;84.82;13.70;;;;;;;;;;4882643;29;20049;-74
2022/12/21 02:32:45;;;;;;;40.83;11.85;;;;;;;;;;4890564;29;20362;-73
2022/12/21 02:35:48;;;;;;;27.27;12.85;;;5.00;99.90;;;;;;4900722;29;20044;-73
2022/12/21 02:38:17;;;;;;;34.70;12.35;;;;;;;;;;4900794;29;20511;-73
2022/12/21 02:40:58;;;;;;;28.70;12.20;;;;;;;;;;4900858;29;20060;-73
2022/12/21 02:46:12;;;;;;;28.35;12.00;;;;;;;;;;4900459;29;20055;-73
2022/12/21 02:48:38;;;;;;;25.30;13.48;;;;;;;;;;4900620;29;20036;-73
2022/12/21 02:51:06;;;;;;;42.85;13.80;;;;;;;;;;4900519;29;20040;-73
2022/12/21 02:53:35;;;;;;;31.95;13.30;;;5.00;99.90;;;;;;4900247;29;20055;-73
2022/12/21 02:56:02;;;;;;;27.60;12.55;;;;;;;;;;4885117;29;20052;-73
2022/12/21 02:58:28;;;;;;;74.47;13.40;;;;;;;;;;4900376;29;20048;-73
2022/12/21 03:01:07;;;;;;;42.35;12.00;;;4.90;99.90;;;;;;4900404;29;20052;-73
2022/12/21 03:04:10;;;;;;;64.20;13.48;;;4.80;99.90;;;;;;4900084;29;20183;-73
2022/12/21 03:06:36;;;;;;;55.47;14.00;;;;;;;;;;4884496;29;20091;-73
2022/12/21 03:09:02;;;;;;;53.85;13.80;;;;;;;;;;4900209;29;20048;-73
2022/12/21 03:11:34;;;;;;;30.58;13.52;;;;;;;;;;4900464;29;20044;-73
2022/12/21 03:14:40;;;;;;;48.80;14.75;;;4.70;99.90;;;;;;4900052;29;20036;-73
2022/12/21 03:17:38;;;;;;;61.58;13.65;;;4.80;99.90;;;;;;4900261;29;20056;-73
2022/12/21 03:20:07;;;;;;;28.83;12.75;;;;;;;;;;4895181;29;20436;-73
2022/12/21 03:22:38;;;;;;;32.50;13.07;;;;;;;;;;4900029;29;20044;-71
2022/12/21 03:25:04;;;;;;;41.63;14.35;;;;;;;;;;4899990;29;20044;-71
2022/12/21 03:27:39;;;;;;;32.28;14.07;;;4.90;99.90;;;;;;4900222;29;20059;-71
2022/12/21 03:30:11;;;;;;;135.27;14.20;;;4.90;99.90;;;;;;4884431;29;20043;-72
2022/12/21 03:32:46;;;;;;;41.10;14.02;;;;;;;;;;4917215;29;20058;-72
2022/12/21 03:35:16;;;;;;;65.82;13.40;;;;;;;;;;4899993;29;20484;-73
2022/12/21 03:37:44;;;;;;;30.13;13.68;;;4.70;99.90;;;;;;4884345;29;20043;-74
2022/12/21 03:40:22;;;;;;;24.65;12.85;;;;;;;;;;4916801;29;20079;-73
2022/12/21 03:42:52;;;;;;;29.02;12.35;;;;;;;;;;4884319;29;20044;-73
2022/12/21 03:45:21;;;;;;;38.92;13.25;;;;;;;;;;4884037;29;20040;-73
2022/12/21 03:47:50;;;;;;;33.92;12.75;;;4.60;99.90;;;;;;4884416;29;20048;-73
2022/12/21 03:50:22;;;;;;;67.35;12.60;;;;;;;;;;4899623;29;20488;-73
2022/12/21 03:52:54;;;;;;;38.28;12.48;;;4.60;99.90;;;;;;4883861;29;20047;-73
2022/12/21 03:55:23;;;;;;;43.50;12.13;;;;;;;;;;4899638;29;20576;-73
2022/12/21 03:57:50;;;;;;;41.00;11.82;;;4.50;99.90;;;;;;4884244;29;20043;-73
2022/12/21 04:00:17;;;;;;;28.02;12.18;;;;;;;;;;4899665;29;20052;-74
2022/12/21 04:02:43;;;;;;;52.22;13.32;;;;;;;;;;4899113;29;20060;-74
2022/12/21 04:05:15;;;;;;;40.33;12.15;;;;;;;;;;4884056;29;20051;-73
2022/12/21 04:07:42;;;;;;;;;;;4.70;99.90;;;;;;4884056;29;20055;-73
2022/12/21 04:10:11;;;;;;;23.80;11.65;;;4.70;99.90;;;;;;4899829;29;20017;-72
2022/12/21 04:12:37;;;;;;;51.78;12.38;;;;;;;;;;4899596;29;20048;-72
2022/12/21 04:15:16;;;;;;;40.55;11.27;;;4.70;99.90;;;;;;4899607;29;20051;-71
2022/12/21 04:17:43;;;;;;;27.80;11.63;;;;;;;;;;4900250;29;20048;-72
2022/12/21 04:20:12;;;;;;;45.72;11.73;;;4.80;99.90;;;;;;4901717;29;20517;-71
2022/12/21 04:28:15;;;;;;;44.38;12.02;;;;;;;;;;4903068;29;20400;-71
2022/12/21 04:30:42;;;;;;;25.05;10.57;;;;;;;;;;4903059;29;20079;-71
2022/12/21 04:33:09;;;;;;;24.80;10.77;;;;;;;;;;4902834;29;20095;-71
2022/12/21 04:35:35;;;;;;;22.85;10.18;;;4.50;99.90;;;;;;4902428;29;20508;-71
2022/12/21 04:38:01;;;;;;;29.25;10.70;;;;;;;;;;4884618;29;20045;-71
2022/12/21 04:40:28;;;;;;;39.88;11.32;;;;;;;;;;4884490;29;20045;-71
2022/12/21 04:42:54;;;;;;;46.42;10.25;;;;;;;;;;4892297;29;20055;-71
2022/12/21 04:45:20;;;;;;;26.08;11.13;;;;;;;;;;4902791;29;20044;-71
2022/12/21 04:47:46;;;;;;;41.38;10.18;;;;;;;;;;4902562;29;20051;-71
2022/12/21 04:50:12;;;;;;;32.80;11.40;;;;;;;;;;4902912;29;20095;-71
2022/12/21 04:52:38;;;;;;;33.67;10.13;;;;;;;;;;4902922;29;20036;-71
2022/12/21 04:55:05;;;;;;;40.05;10.80;;;;;;;;;;4902728;29;20054;-72
2022/12/21 04:57:31;;;;;;;25.80;10.95;;;;;;;;;;4887092;29;20062;-71
2022/12/21 04:59:57;;;;;;;28.45;11.30;;;;;;;;;;4886941;29;20048;-71
2022/12/21 05:02:23;;;;;;;29.65;10.85;;;;;;;;;;4901605;29;20048;-71
2022/12/21 05:04:49;;;;;;;37.00;10.63;;;;;;;;;;4902692;29;20092;-71
2022/12/21 05:07:15;;;;;;;24.88;10.52;;;;;;;;;;4902082;29;20060;-71
2022/12/21 05:09:41;;;;;;;43.42;11.13;;;;;;;;;;4902392;29;20036;-71
2022/12/21 05:12:07;;;;;;;59.80;12.00;;;;;;;;;;4902456;29;20051;-71
2022/12/21 05:14:33;;;;;;;32.90;10.85;;;;;;;;;;4902458;29;20048;-72
2022/12/21 05:17:00;;;;;;;23.17;10.77;;;;;;;;;;4902000;29;20071;-72
2022/12/21 05:19:26;;;;;;;38.25;11.38;;;;;;;;;;4886809;29;20409;-72
2022/12/21 05:21:52;;;;;;;41.95;12.25;;;;;;;;;;4902110;29;20123;-71
2022/12/21 05:24:18;;;;;;;34.53;11.65;;;;;;;;;;4886848;29;20051;-71
2022/12/21 05:26:44;;;;;;;28.77;11.90;;;;;;;;;;4902162;29;20048;-72
2022/12/21 05:29:13;;;;;;;28.25;11.75;;;;;;;;;;4902057;29;20040;-72
2022/12/21 05:31:39;;;;;;;29.02;11.70;;;;;;;;;;4902054;29;20389;-72
2022/12/21 05:34:05;;;;;;;36.88;12.15;;;;;;;;;;4902200;29;20143;-72
2022/12/21 05:36:31;;;;;;;50.63;13.75;;;;;;;;;;4902109;29;20075;-71
2022/12/21 05:38:57;;;;;;;30.27;11.98;;;;;;;;;;4902061;29;20385;-72
2022/12/21 05:41:23;;;;;;;28.40;11.50;;;;;;;;;;4901951;29;20106;-71
2022/12/21 05:43:49;;;;;;;36.38;11.65;;;;;;;;;;4901498;29;20083;-72
2022/12/21 05:46:16;;;;;;;54.45;12.77;;;;;;;;;;4901525;29;20050;-71
2022/12/21 05:48:42;;;;;;;33.95;12.05;;;;;;;;;;4901861;29;20075;-72
2022/12/21 05:51:12;;;;;;;66.63;13.02;;;;;;;;;;4901759;29;20126;-72
2022/12/21 05:53:43;;;;;;;49.70;11.55;;;4.60;99.90;;;;;;4901549;29;20048;-71
2022/12/21 05:56:10;;;;;;;39.28;12.05;;;;;;;;;;4901825;29;20071;-71
2022/12/21 05:58:37;;;;;;;37.90;11.50;;;;;;;;;;4901386;29;20508;-71
2022/12/21 06:01:05;;;;;;;61.60;12.27;;;;;;;;;;4901464;29;20420;-71
2022/12/21 06:03:31;;;;;;;60.45;11.77;;;;;;;;;;4900791;29;20074;-72
2022/12/21 06:06:08;;;;;;;35.42;11.05;;;4.60;99.90;;;;;;4901278;29;20132;-72
2022/12/21 06:08:34;;;;;;;38.80;11.27;;;;;;;;;;4901077;29;20052;-72
2022/12/21 06:11:08;;;;;;;29.27;11.77;;;4.80;99.90;;;;;;4886232;29;20050;-71
2022/12/21 06:13:35;;;;;;;40.72;10.50;;;;;;;;;;4901336;29;20127;-72
2022/12/21 06:16:06;;;;;;;47.13;10.25;;;;;;;;;;4882798;29;20434;-72
2022/12/21 06:18:32;;;;;;;35.10;11.43;;;;;;;;;;4891398;29;20123;-72
2022/12/21 06:20:58;;;;;;;27.00;11.55;;;;;;;;;;4885818;29;20048;-72
2022/12/21 06:23:25;;;;;;;28.27;11.82;;;;;;;;;;4901111;29;20399;-72
2022/12/21 06:25:54;;;;;;;33.58;10.38;;;;;;;;;;4900553;29;20099;-72
2022/12/21 06:28:21;;;;;;;37.03;11.50;;;;;;;;;;4900832;29;20047;-72
2022/12/21 06:30:47;;;;;;;83.63;11.90;;;;;;;;;;4901117;29;20123;-71
2022/12/21 06:33:13;;;;;;;30.02;11.85;;;;;;;;;;4900413;29;20040;-71
2022/12/21 06:35:39;;;;;;;36.08;12.57;;;;;;;;;;4901499;29;20126;-71
2022/12/21 06:38:05;;;;;;;75.03;11.95;;;;;;;;;;4899874;29;20051;-72
2022/12/21 06:40:31;;;;;;;26.20;12.25;;;;;;;;;;4900028;29;20448;-72
2022/12/21 06:42:57;;;;;;;82.13;12.77;;;;;;;;;;4884178;29;20044;-72
2022/12/21 06:45:23;;;;;;;46.00;12.73;;;;;;;;;;4898863;29;20095;-72
2022/12/21 06:47:53;;;;;;;28.92;12.35;;;4.70;99.90;;;;;;4884430;29;20066;-72
2022/12/21 06:50:19;;;;;;;28.85;13.20;;;;;;;;;;4899366;29;20159;-72
2022/12/21 06:52:47;;;;;;;28.35;12.68;;;4.50;99.90;;;;;;4900268;29;20043;-72
2022/12/21 06:55:13;;;;;;;52.33;13.50;;;;;;;;;;4885226;29;20126;-72
2022/12/21 06:57:39;;;;;;;38.75;14.70;;;;;;;;;;4900533;29;20055;-72
2022/12/21 07:00:05;;;;;;;66.25;14.98;;;;;;;;;;4900964;29;20044;-72
2022/12/21 07:02:31;;;;;;;32.83;12.88;;;;;;;;;;4884692;29;20496;-72
2022/12/21 07:04:57;;;;;;;34.22;14.00;;;;;;;;;;4900518;29;20472;-72
2022/12/21 07:07:24;;;;;;;38.60;15.48;;;;;;;;;;4884962;29;20044;-73
2022/12/21 07:09:50;;;;;;;39.95;14.70;;;;;;;;;;4900755;29;20400;-72
2022/12/21 07:12:16;;;;;;;42.83;14.98;;;;;;;;;;4900656;29;20134;-72
2022/12/21 07:14:42;;;;;;;61.38;17.20;;;;;;;;;;4900424;29;20052;-73
2022/12/21 07:17:08;;;;;;;41.65;16.95;;;;;;;;;;4900255;29;20497;-73
2022/12/21 07:19:35;;;;;;;43.80;15.10;;;;;;;;;;4900532;29;20042;-72
2022/12/21 07:22:01;;;;;;;39.70;15.82;;;;;;;;;;4899729;29;20044;-72
2022/12/21 07:24:27;;;;;;;41.83;15.73;;;;;;;;;;4899156;29;20130;-72
2022/12/21 07:26:54;;;;;;;44.30;15.57;;;;;;;;;;4898998;29;20482;-73
2022/12/21 07:29:20;;;;;;;44.15;14.82;;;;;;;;;;4899100;29;20048;-73
2022/12/21 07:31:46;;;;;;;34.78;15.38;;;;;;;;;;4898947;29;20048;-73
2022/12/21 07:34:12;;;;;;;42.83;15.00;;;;;;;;;;4898547;29;20040;-73
2022/12/21 07:36:38;;;;;;;34.70;15.25;;;;;;;;;;4898618;29;20148;-72
2022/12/21 07:39:05;;;;;;;35.67;14.38;;;4.80;99.90;;;;;;4898742;29;20417;-72
2022/12/21 07:41:31;;;;;;;30.48;15.30;;;;;;;;;;4898935;29;20043;-72
2022/12/21 07:43:57;;;;;;;37.25;14.57;;;;;;;;;;4883984;29;20632;-72
2022/12/21 07:46:23;;;;;;;38.97;15.55;;;;;;;;;;4899824;29;20050;-73
2022/12/21 07:48:50;;;;;;;49.13;16.58;;;;;;;;;;4899731;29;20040;-72
2022/12/21 07:51:16;;;;;;;47.45;16.20;;;;;;;;;;4900048;29;20087;-73
2022/12/21 07:53:43;;;;;;;41.05;16.33;;;;;;;;;;4900194;29;20040;-72
2022/12/21 07:56:17;;;;;;;47.58;16.50;;;4.80;99.90;;;;;;4903645;29;20507;-72
2022/12/21 07:58:43;;;;;;;51.35;17.48;;;;;;;;;;4903385;29;20057;-73
2022/12/21 08:01:10;;;;;;;49.13;17.02;;;;;;;;;;4903818;29;20186;-72
2022/12/21 08:03:37;;;;;;;46.25;18.23;;;;;;;;;;4903582;29;20052;-73
2022/12/21 08:06:04;;;;;;;58.30;17.65;;;;;;;;;;4903452;29;20048;-72
2022/12/21 08:08:30;;;;;;;48.50;19.30;;;;;;;;;;4896921;29;20115;-72
2022/12/21 08:10:56;;;;;;;47.78;18.95;;;;;;;;;;4907259;29;20049;-73
2022/12/21 08:13:24;;;;;;;60.85;19.42;;;;;;;;;;4876327;29;20047;-73
2022/12/21 08:15:58;;;;;;;60.38;19.95;;;4.90;99.90;;;;;;4887064;29;20048;-73
2022/12/21 08:18:24;;;;;;;82.32;22.23;;;;;;;;;;4902697;29;20082;-73
2022/12/21 08:20:50;;;;;;;61.63;22.73;;;;;;;;;;4902701;29;20075;-73
2022/12/21 08:23:16;;;;;;;63.40;22.45;;;;;;;;;;4903006;29;20039;-73
2022/12/21 08:25:42;;;;;;;63.03;21.85;;;;;;;;;;4902259;29;20625;-73
2022/12/21 08:28:08;;;;;;;59.55;23.35;;;;;;;;;;4887582;29;20370;-73
2022/12/21 08:30:34;;;;;;;62.10;22.73;;;;;;;;;;4903031;29;20385;-73
2022/12/21 08:33:00;;;;;;;82.30;24.75;;;;;;;;;;4902814;29;20036;-73
2022/12/21 08:35:28;;;;;;;69.75;22.77;;;;;;;;;;4902622;29;20346;-73
2022/12/21 08:37:54;;;;;;;99.70;23.63;;;;;;;;;;4902026;29;20468;-72
2022/12/21 08:40:20;;;;;;;68.32;23.85;;;;;;;;;;4934341;29;20055;-72
2022/12/21 08:42:47;;;;;;;85.03;21.92;;;;;;;;;;4934689;29;20075;-72
2022/12/21 08:45:13;;;;;;;78.18;23.30;;;;;;;;;;4934447;29;20040;-72
2022/12/21 08:47:39;;;;;;;86.40;24.50;;;;;;;;;;4934538;29;20044;-72
2022/12/21 08:50:05;;;;;;;55.60;22.65;;;;;;;;;;4934408;29;20059;-72
2022/12/21 08:52:32;;;;;;;84.18;23.52;;;;;;;;;;4934440;29;20108;-72
2022/12/21 08:54:58;;;;;;;79.85;23.58;;;;;;;;;;4918285;29;20040;-72
2022/12/21 08:57:24;;;;;;;61.75;22.67;;;;;;;;;;4934121;29;20047;-72
2022/12/21 08:59:51;;;;;;;58.45;23.27;;;;;;;;;;4934184;29;20055;-72
2022/12/21 09:02:17;;;;;;;68.72;23.00;;;;;;;;;;4934143;29;20404;-72
2022/12/21 09:04:43;;;;;;;76.43;25.45;;;;;;;;;;4933537;29;20138;-72
2022/12/21 09:07:09;;;;;;;74.22;24.45;;;;;;;;;;4917927;29;20095;-72
2022/12/21 09:09:35;;;;;;;74.47;24.20;;;;;;;;;;4934248;29;20044;-72
2022/12/21 09:12:01;;;;;;;72.82;23.25;;;;;;;;;;4933090;29;20032;-72
2022/12/21 09:14:34;;;;;;;66.05;22.48;;;5.40;99.90;;;;;;4898306;29;20032;-73
2022/12/21 09:17:00;;;;;;;;;;;;;;;;;;4902988;29;20044;-72
2022/12/21 09:19:27;;;;;;;76.82;23.50;;;;;;;;;;4895309;29;20415;-72
2022/12/21 09:21:53;;;;;;;81.18;23.40;;;;;;;;;;4902204;29;20048;-72
2022/12/21 09:24:19;;;;;;;75.80;23.77;;;;;;;;;;4883352;29;20060;-73
2022/12/21 09:26:45;;;;;;;72.38;23.63;;;;;;;;;;4883306;29;20401;-73
2022/12/21 09:29:11;;;;;;;73.43;25.17;;;;;;;;;;4901196;29;20040;-73
2022/12/21 09:31:37;;;;;;;83.05;24.63;;;;;;;;;;4919390;29;20040;-73
2022/12/21 09:34:04;;;;;;;85.13;25.60;;;;;;;;;;4886383;29;20040;-73
2022/12/21 09:36:32;;;;;;;83.75;24.55;;;;;;;;;;4901994;29;20063;-73
2022/12/21 09:38:58;;;;;;;70.90;23.90;;;;;;;;;;4886342;29;20048;-73
2022/12/21 09:41:39;;;;;;;71.22;22.95;;;;;;;;;;4901873;29;20052;-72
2022/12/21 09:44:25;;;;;;;69.13;23.10;;;;;;;;;;4901508;29;20112;-72
2022/12/21 09:46:53;;;;;;;76.60;22.92;;;;;;;;;;4901686;29;20044;-73
2022/12/21 09:49:30;;;;;;;64.00;22.13;;;5.70;99.90;;;;;;4902338;29;20139;-73
2022/12/21 09:51:59;;;;;;;69.68;21.40;;;5.70;99.90;;;;;;4886043;29;20044;-73
2022/12/21 09:54:33;;;;;;;72.65;22.67;;;;;;;;;;4900814;29;20086;-73
2022/12/21 09:56:59;;;;;;;55.92;19.85;;;;;;;;;;4901051;29;20044;-73
2022/12/21 09:59:26;;;;;;;61.47;18.98;;;;;;;;;;4900009;29;20501;-73
2022/12/21 10:01:58;;;;;;;53.85;19.80;;;;;;;;;;4901417;29;20048;-73
2022/12/21 10:04:45;;;;;;;64.20;18.40;;;5.80;99.90;;;;;;4900063;29;20587;-72
2022/12/21 10:07:30;;;;;;;72.38;19.42;;;;;;;;;;4901522;29;20099;-72
2022/12/21 10:10:02;;;;;;;49.25;17.13;;;;;;;;;;4901709;29;20123;-72
2022/12/21 10:12:31;;;;;;;59.80;16.70;;;;;;;;;;4886059;29;20358;-71
2022/12/21 10:15:06;;;;;;;55.60;18.60;;;;;;;;;;4901599;29;20059;-71
2022/12/21 10:17:57;;;;;;;54.90;19.58;;;;;;;;;;4900412;29;20489;-71
2022/12/21 10:20:26;;;;;;;58.05;18.27;;;;;;;;;;4888554;29;20055;-71
2022/12/21 10:22:57;;;;;;;59.25;19.75;;;5.80;99.90;;;;;;4900994;29;20119;-71
2022/12/21 10:25:43;;;;;;;57.28;19.15;;;5.90;99.90;;;;;;4900527;29;20057;-71
2022/12/21 10:28:09;;;;;;;61.20;18.27;;;;;;;;;;4900317;29;20044;-72
2022/12/21 10:30:38;;;;;;;55.17;18.05;;;5.80;99.90;;;;;;4885010;29;20150;-72
2022/12/21 10:33:04;;;;;;;57.80;17.08;;;;;;;;;;4900509;29;20151;-72
2022/12/21 10:35:37;;;;;;;58.78;17.95;;;;;;;;;;4900613;29;20377;-72
2022/12/21 10:38:12;;;;;;;58.28;18.35;;;;;;;;;;4900588;29;20054;-72
2022/12/21 10:40:38;;;;;;;63.63;18.48;;;;;;;;;;4901356;29;20099;-72
2022/12/21 10:43:04;;;;;;;71.72;21.20;;;;;;;;;;4884638;29;20051;-72
2022/12/21 10:45:30;;;;;;;69.32;20.08;;;;;;;;;;4900615;29;20051;-72
2022/12/21 10:47:57;;;;;;;65.05;20.00;;;;;;;;;;4899836;29;20119;-72
2022/12/21 10:50:25;;;;;;;64.57;20.63;;;;;;;;;;4906970;29;20119;-72
2022/12/21 10:52:54;;;;;;;70.85;20.35;;;;;;;;;;4907210;29;20118;-72
2022/12/21 10:55:20;;;;;;;78.82;20.77;;;;;;;;;;4900322;29;20043;-72
2022/12/21 10:57:48;;;;;;;67.38;20.45;;;;;;;;;;4923956;29;20040;-72
2022/12/21 11:00:20;;;;;;;63.88;21.23;;;;;;;;;;4932019;29;20044;-72
2022/12/21 11:02:47;;;;;;;;;;;6.20;99.90;;;;;;4885236;29;20134;-73
2022/12/21 11:05:39;;;;;;;82.35;20.98;;;6.20;99.90;;;;;;4900215;29;20371;-72
2022/12/21 11:08:15;;;;;;;74.78;21.30;;;;;;;;;;4900275;29;20040;-72
2022/12/21 11:10:43;;;;;;;71.05;21.25;;;6.20;99.90;;;;;;4918230;29;20048;-72
2022/12/21 11:13:10;;;;;;;71.95;21.88;;;;;;;;;;4900291;29;20058;-72
2022/12/21 11:15:37;;;;;;;74.22;22.70;;;;;;;;;;4884403;29;20055;-72
2022/12/21 11:18:03;;;;;;;73.28;24.17;;;;;;;;;;4917381;29;20048;-72
2022/12/21 11:20:29;;;;;;;78.40;24.02;;;;;;;;;;4899907;29;20055;-72
2022/12/21 11:23:01;;;;;;;70.80;24.23;;;;;;;;;;4899419;29;20044;-72
2022/12/21 11:25:29;;;;;;;78.47;25.00;;;;;;;;;;4884484;29;20441;-72
2022/12/21 11:27:59;;;;;;;89.15;26.48;;;6.70;99.90;;;;;;4899514;29;20048;-72
2022/12/21 11:30:26;;;;;;;75.68;23.95;;;;;;;;;;4923996;29;20448;-72
2022/12/21 11:32:54;;;;;;;83.53;25.25;;;;;;;;;;4923712;29;20054;-72
2022/12/21 11:35:25;;;;;;;78.15;23.42;;;6.70;99.90;;;;;;4910909;29;20032;-72
2022/12/21 11:38:01;;;;;;;82.53;25.63;;;6.80;99.90;;;;;;4899640;29;20381;-72
2022/12/21 11:40:28;;;;;;;72.13;25.90;;;;;;;;;;4891735;29;20453;-72
2022/12/21 11:43:01;;;;;;;78.22;25.58;;;;;;;;;;4899579;29;20048;-72
2022/12/21 11:45:49;;;;;;;90.18;28.75;;;;;;;;;;4897269;29;20036;-72
2022/12/21 11:48:27;;;;;;;79.50;26.65;;;6.90;99.90;;;;;;4899685;29;20044;-72
2022/12/21 11:50:56;;;;;;;75.20;26.67;;;;;;;;;;4899428;29;20043;-72
2022/12/21 11:53:22;;;;;;;78.13;27.35;;;;;;;;;;4884006;29;20510;-72
2022/12/21 11:55:56;;;;;;;88.43;28.15;;;;;;;;;;4893686;29;20044;-72
2022/12/21 11:58:22;;;;;;;85.78;27.40;;;;;;;;;;4899320;29;20084;-72
2022/12/21 12:01:07;;;;;;;86.72;27.88;;;;;;;;;;4899539;29;20044;-72
2022/12/21 12:04:00;;;;;;;76.95;26.02;;;7.60;99.90;;;;;;4899378;29;20194;-72
2022/12/21 12:07:07;;;;;;;73.68;25.15;;;7.70;99.90;;;;;;4899366;29;20052;-72
2022/12/21 12:09:36;;;;;;;73.05;25.00;;;;;;;;;;4916521;29;20047;-72
2022/12/21 12:12:08;;;;;;;80.95;23.98;;;;;;;;;;4916879;29;20040;-72
2022/12/21 12:14:34;;;;;;;75.47;24.30;;;;;;;;;;4899504;29;20083;-72
2022/12/21 12:17:09;;;;;;;76.88;24.73;;;;;;;;;;4884185;29;20059;-72
2022/12/21 12:19:54;;;;;;;82.13;25.38;;;;;;;;;;4899564;29;20141;-72
2022/12/21 12:22:23;;;;;;;69.18;22.63;;;;;;;;;;4895154;29;20055;-72
2022/12/21 12:25:14;;;;;;;76.13;24.13;;;7.60;99.90;;;;;;4893812;29;20045;-72
2022/12/21 12:27:56;;;;;;;73.47;24.13;;;7.50;99.90;;;;;;4896753;29;20084;-72
2022/12/21 12:30:54;;;;;;;70.53;24.40;;;7.30;99.90;;;;;;4894068;29;20037;-72
2022/12/21 12:33:20;;;;;;;65.38;23.63;;;;;;;;;;4885468;29;20078;-72
2022/12/21 12:36:27;;;;;;;86.65;25.63;;;7.40;99.90;;;;;;4899172;29;20043;-73
2022/12/21 12:39:07;;;;;;;82.03;27.17;;;;;;;;;;4899567;29;20044;-73
2022/12/21 12:41:58;;;;;;;83.07;28.58;;;7.50;99.90;;;;;;4901122;29;20095;-73
2022/12/21 12:44:48;;;;;;;77.03;28.58;;;7.40;99.90;;;;;;4902910;29;20040;-73
2022/12/21 12:47:37;;;;;;;106.32;30.88;;;7.30;99.90;;;;;;4884053;29;20108;-73
2022/12/21 12:50:19;;;;;;;89.88;29.52;;;7.30;99.90;;;;;;4901641;29;20139;-74
2022/12/21 12:53:20;;;;;;;80.25;31.33;;;7.40;99.90;;;;;;4902789;29;20055;-74
2022/12/21 12:56:01;;;;;;;90.20;31.90;;;7.40;99.90;;;;;;4865726;29;20044;-73
2022/12/21 12:58:41;;;;;;;84.00;29.77;;;;;;;;;;4901644;29;20046;-73
2022/12/21 13:01:31;;;;;;;84.45;31.05;;;7.40;99.90;;;;;;4895756;29;20473;-73
2022/12/21 13:04:18;;;;;;;85.13;30.90;;;;;;;;;;4886028;29;20056;-73
2022/12/21 13:07:05;;;;;;;87.35;30.23;;;7.20;99.90;;;;;;4900585;29;20055;-73
2022/12/21 13:09:31;;;;;;;86.88;32.47;;;;;;;;;;4902546;29;20040;-73
2022/12/21 13:12:10;;;;;;;91.15;31.05;;;;;;;;;;4902935;29;20070;-74
2022/12/21 13:14:36;;;;;;;93.40;31.30;;;;;;;;;;4881847;29;20056;-73
2022/12/21 13:17:20;;;;;;;85.07;32.40;;;;;;;;;;4881686;29;20044;-73
2022/12/21 13:19:48;;;;;;;81.25;31.45;;;;;;;;;;4883475;29;20096;-73
2022/12/21 13:22:16;;;;;;;79.90;31.45;;;;;;;;;;4882307;29;20107;-73
2022/12/21 13:24:45;;;;;;;81.43;32.03;;;;;;;;;;4883083;29;20036;-73
2022/12/21 13:27:25;;;;;;;76.75;30.70;;;7.30;99.90;;;;;;4883127;29;20045;-73
2022/12/21 13:30:01;;;;;;;72.85;30.75;;;7.30;99.90;;;;;;4867914;29;20076;-73
2022/12/21 13:32:31;;;;;;;84.82;31.33;;;7.40;99.90;;;;;;4899282;29;20043;-73
2022/12/21 13:35:00;;;;;;;94.38;33.25;;;;;;;;;;4883718;29;20363;-73
2022/12/21 13:37:26;;;;;;;89.10;31.25;;;;;;;;;;4883282;29;20136;-73
2022/12/21 13:39:59;;;;;;;72.03;29.73;;;;;;;;;;4852597;29;20056;-73
2022/12/21 13:42:47;;;;;;;77.30;29.98;;;7.40;99.90;;;;;;4883475;29;20137;-73
2022/12/21 13:45:26;;;;;;;70.72;29.90;;;;;;;;;;4883643;29;20049;-73
2022/12/21 13:47:52;;;;;;;79.72;29.30;;;7.40;99.90;;;;;;4899971;29;20052;-73
2022/12/21 13:50:24;;;;;;;70.15;29.73;;;;;;;;;;4898979;29;20056;-73
2022/12/21 13:53:03;;;;;;;68.35;30.58;;;;;;;;;;4883282;29;20096;-73
2022/12/21 13:55:52;;;;;;;83.65;30.15;;;;;;;;;;4883208;29;20036;-73
2022/12/21 13:58:18;;;;;;;71.65;28.85;;;;;;;;;;4883189;29;20076;-73
2022/12/21 14:00:57;;;;;;;64.93;27.20;;;7.40;99.90;;;;;;4882938;29;20056;-73
2022/12/21 14:03:28;;;;;;;74.28;30.55;;;;;;;;;;4882634;29;20573;-73
2022/12/21 14:06:17;;;;;;;74.75;29.17;;;7.60;99.90;;;;;;4898748;29;20044;-73
2022/12/21 14:08:46;;;;;;;74.45;28.55;;;;;;;;;;4898382;29;20052;-73
2022/12/21 14:11:31;;;;;;;87.18;29.38;;;;;;;;;;4882873;29;20049;-73
2022/12/21 14:14:13;;;;;;;69.93;30.83;;;7.30;99.90;;;;;;4883021;29;20059;-73
2022/12/21 14:16:39;;;;;;;71.05;30.13;;;;;;;;;;4867293;29;20048;-73
2022/12/21 14:19:24;;;;;;;74.13;29.50;;;;;;;;;;4882663;29;20044;-73
2022/12/21 14:21:51;;;;;;;86.43;31.27;;;7.40;99.90;;;;;;4882811;29;20401;-73
2022/12/21 14:24:22;;;;;;;73.40;32.35;;;;;;;;;;4882464;29;20052;-73